createdAt,value
2023-04-16T00:00:32.580Z,7.07
2023-04-16T00:03:04.580Z,6.68
2023-04-16T00:05:35.937Z,7.05
2023-04-16T00:08:06.145Z,6.93
2023-04-16T00:10:37.392Z,6.86
2023-04-16T00:13:07.397Z,6.84
2023-04-16T00:15:37.932Z,6.96
2023-04-16T00:18:09.469Z,7.18
2023-04-16T00:20:39.744Z,7.17
2023-04-16T00:23:09.925Z,7.26
2023-04-16T00:25:40.634Z,7.13
2023-04-16T00:28:11.385Z,6.96
2023-04-16T00:30:41.394Z,7.03
2023-04-16T00:33:12.988Z,6.49
2023-04-16T00:35:43.581Z,6.51
2023-04-16T00:38:14.172Z,6.86
2023-04-16T00:40:43.905Z,7.16
2023-04-16T00:43:13.466Z,7.22
2023-04-16T00:45:43.284Z,7.00
2023-04-16T00:48:15.764Z,7.20
2023-04-16T00:50:46.082Z,7.23
2023-04-16T00:53:16.366Z,7.11
2023-04-16T00:55:46.685Z,7.11
2023-04-16T00:58:18.116Z,7.19
2023-04-16T01:00:47.791Z,7.10
2023-04-16T01:03:20.301Z,6.61
2023-04-16T01:05:51.310Z,7.01
2023-04-16T01:08:23.929Z,6.89
2023-04-16T01:10:54.432Z,6.83
2023-04-16T01:13:25.147Z,6.79
2023-04-16T01:15:59.785Z,6.41
2023-04-16T01:18:36.250Z,6.60
2023-04-16T01:21:09.284Z,7.01
2023-04-16T01:23:40.469Z,6.82
2023-04-16T01:26:10.596Z,6.74
2023-04-16T01:28:43.823Z,6.52
2023-04-16T01:31:13.832Z,6.84
2023-04-16T01:33:44.304Z,6.94
2023-04-16T01:36:17.032Z,7.18
2023-04-16T01:38:48.462Z,7.09
2023-04-16T01:41:18.064Z,7.15
2023-04-16T01:43:48.633Z,7.17
2023-04-16T01:46:23.037Z,6.80
2023-04-16T01:49:01.485Z,6.72
2023-04-16T01:51:33.499Z,6.68
2023-04-16T01:54:04.068Z,6.58
2023-04-16T01:56:35.110Z,6.77
2023-04-16T01:59:07.892Z,7.06
2023-04-16T02:01:39.604Z,6.92
2023-04-16T02:04:12.304Z,7.00
2023-04-16T02:06:46.550Z,6.98
2023-04-16T02:09:23.021Z,6.78
2023-04-16T02:11:53.612Z,6.77
2023-04-16T02:14:26.039Z,6.86
2023-04-16T02:16:56.688Z,6.97
2023-04-16T02:19:27.611Z,6.82
2023-04-16T02:22:01.985Z,6.87
2023-04-16T02:24:32.480Z,7.01
2023-04-16T02:27:03.448Z,6.91
2023-04-16T02:29:33.930Z,7.00
2023-04-16T02:32:04.288Z,7.02
2023-04-16T02:34:35.710Z,6.53
2023-04-16T02:37:06.811Z,6.85
2023-04-16T02:39:36.634Z,6.69
2023-04-16T02:42:07.234Z,6.94
2023-04-16T02:44:37.307Z,7.02
2023-04-16T02:47:08.257Z,6.88
2023-04-16T02:49:38.789Z,6.64
2023-04-16T02:52:10.801Z,6.48
2023-04-16T02:54:41.912Z,6.52
2023-04-16T02:57:11.711Z,6.77
2023-04-16T02:59:42.065Z,6.99
2023-04-16T03:02:12.653Z,6.69
2023-04-16T03:04:42.601Z,6.91
2023-04-16T03:07:14.700Z,6.94
2023-04-16T03:09:44.835Z,7.06
2023-04-16T03:12:15.147Z,7.06
2023-04-16T03:14:45.566Z,7.17
2023-04-16T03:17:16.219Z,6.99
2023-04-16T03:19:45.870Z,7.05
2023-04-16T03:22:17.174Z,6.92
2023-04-16T03:24:47.143Z,6.86
2023-04-16T03:27:17.673Z,6.96
2023-04-16T03:29:49.014Z,6.80
2023-04-16T03:32:19.271Z,6.72
2023-04-16T03:34:50.045Z,6.82
2023-04-16T03:37:24.432Z,6.85
2023-04-16T03:39:55.336Z,6.94
2023-04-16T03:42:26.263Z,7.11
2023-04-16T03:44:56.727Z,6.98
2023-04-16T03:47:26.585Z,6.93
2023-04-16T03:49:57.028Z,6.77
2023-04-16T03:52:29.506Z,6.88
2023-04-16T03:54:59.994Z,6.61
2023-04-16T03:57:29.915Z,6.26
2023-04-16T03:59:59.877Z,6.21
2023-04-16T04:02:30.056Z,6.63
2023-04-16T04:05:00.213Z,6.42
2023-04-16T04:07:32.110Z,6.36
2023-04-16T04:10:02.140Z,6.54
2023-04-16T04:12:32.196Z,6.78
2023-04-16T04:15:02.056Z,6.83
2023-04-16T04:17:32.386Z,6.57
2023-04-16T04:20:02.802Z,6.88
2023-04-16T04:22:34.663Z,6.54
2023-04-16T04:25:04.839Z,6.57
2023-04-16T04:27:35.658Z,6.71
2023-04-16T04:30:06.485Z,6.82
2023-04-16T04:32:36.358Z,6.83
2023-04-16T04:35:08.463Z,6.94
2023-04-16T04:37:40.225Z,6.97
2023-04-16T04:40:11.667Z,6.92
2023-04-16T04:42:42.110Z,6.75
2023-04-16T04:45:13.456Z,6.74
2023-04-16T04:47:43.116Z,6.79
2023-04-16T04:50:13.988Z,6.63
2023-04-16T04:52:46.200Z,6.92
2023-04-16T04:55:17.352Z,6.69
2023-04-16T04:57:47.279Z,7.01
2023-04-16T05:00:19.593Z,6.78
2023-04-16T05:02:50.687Z,6.84
2023-04-16T05:05:22.486Z,6.63
2023-04-16T05:07:54.663Z,6.80
2023-04-16T05:10:25.389Z,7.01
2023-04-16T05:12:56.203Z,7.11
2023-04-16T05:15:26.407Z,6.71
2023-04-16T05:17:57.241Z,6.84
2023-04-16T05:20:28.639Z,6.49
2023-04-16T05:23:00.613Z,6.91
2023-04-16T05:25:30.449Z,7.00
2023-04-16T05:28:01.084Z,7.07
2023-04-16T05:30:30.916Z,7.01
2023-04-16T05:33:01.036Z,7.08
2023-04-16T05:35:31.917Z,6.90
2023-04-16T05:38:04.783Z,7.40
2023-04-16T05:40:34.716Z,7.28
2023-04-16T05:43:05.051Z,7.13
2023-04-16T05:45:39.864Z,7.18
2023-04-16T05:48:10.741Z,7.30
2023-04-16T05:50:41.259Z,7.24
2023-04-16T05:53:14.297Z,7.22
2023-04-16T05:55:44.940Z,7.18
2023-04-16T05:58:16.119Z,7.17
2023-04-16T06:00:46.671Z,7.10
2023-04-16T06:03:16.937Z,7.23
2023-04-16T06:05:47.953Z,7.24
2023-04-16T06:08:20.136Z,7.27
2023-04-16T06:10:51.778Z,7.33
2023-04-16T06:13:21.956Z,7.34
2023-04-16T06:15:53.473Z,7.46
2023-04-16T06:18:24.516Z,7.55
2023-04-16T06:20:55.231Z,7.58
2023-04-16T06:23:27.754Z,7.61
2023-04-16T06:25:57.961Z,7.70
2023-04-16T06:28:28.230Z,7.69
2023-04-16T06:30:58.130Z,7.61
2023-04-16T06:33:28.508Z,7.63
2023-04-16T06:35:58.319Z,7.72
2023-04-16T06:38:30.010Z,7.68
2023-04-16T06:41:00.350Z,7.72
2023-04-16T06:43:31.957Z,7.59
2023-04-16T06:46:02.225Z,7.88
2023-04-16T06:48:32.198Z,7.85
2023-04-16T06:51:03.007Z,7.82
2023-04-16T06:53:35.912Z,7.82
2023-04-16T06:56:07.720Z,7.82
2023-04-16T06:58:38.428Z,7.98
2023-04-16T07:01:08.872Z,8.03
2023-04-16T07:03:40.196Z,8.20
2023-04-16T07:06:10.693Z,8.13
2023-04-16T07:08:42.872Z,8.22
2023-04-16T07:11:12.836Z,8.08
2023-04-16T07:13:42.894Z,8.41
2023-04-16T07:16:13.439Z,8.22
2023-04-16T07:18:44.119Z,8.36
2023-04-16T07:21:14.104Z,8.42
2023-04-16T07:23:45.946Z,8.35
2023-04-16T07:26:16.259Z,8.20
2023-04-16T07:28:46.651Z,8.54
2023-04-16T07:31:16.468Z,8.68
2023-04-16T07:33:46.324Z,8.41
2023-04-16T07:36:16.694Z,8.52
2023-04-16T07:38:48.210Z,8.78
2023-04-16T07:41:18.414Z,8.44
2023-04-16T07:43:47.862Z,8.24
2023-04-16T07:46:17.979Z,8.26
2023-04-16T07:48:48.006Z,8.58
2023-04-16T07:51:18.128Z,8.70
2023-04-16T07:53:52.032Z,8.69
2023-04-16T07:56:23.071Z,8.33
2023-04-16T07:59:20.922Z,8.76
2023-04-16T08:01:55.231Z,8.46
2023-04-16T08:04:26.625Z,8.52
2023-04-16T08:06:57.071Z,8.57
2023-04-16T08:09:30.425Z,8.47
2023-04-16T08:12:01.592Z,8.75
2023-04-16T08:14:31.498Z,8.48
2023-04-16T08:17:02.576Z,8.70
2023-04-16T08:19:33.174Z,8.84
2023-04-16T08:22:02.778Z,8.84
2023-04-16T08:24:34.913Z,9.04
2023-04-16T08:27:17.749Z,9.19
2023-04-16T08:29:49.980Z,9.14
2023-04-16T08:32:20.885Z,8.95
2023-04-16T08:34:51.749Z,9.00
2023-04-16T08:37:21.844Z,9.20
2023-04-16T08:39:54.294Z,9.35
2023-04-16T08:42:30.717Z,9.37
2023-04-16T08:45:09.526Z,9.61
2023-04-16T08:47:39.208Z,9.57
2023-04-16T08:50:12.208Z,9.44
2023-04-16T08:52:47.775Z,9.73
2023-04-16T08:55:19.823Z,9.66
2023-04-16T08:57:53.696Z,9.58
2023-04-16T09:00:24.390Z,9.59
2023-04-16T09:02:54.614Z,9.51
2023-04-16T09:05:25.965Z,9.30
2023-04-16T09:07:56.581Z,9.51
2023-04-16T09:10:29.951Z,9.55
2023-04-16T09:12:59.788Z,9.50
2023-04-16T09:15:32.018Z,9.66
2023-04-16T09:18:02.985Z,9.67
2023-04-16T09:20:32.966Z,9.67
2023-04-16T09:23:03.189Z,9.79
2023-04-16T09:25:37.540Z,9.92
2023-04-16T09:28:08.063Z,10.17
2023-04-16T09:30:38.009Z,9.60
2023-04-16T09:33:23.289Z,9.73
2023-04-16T09:35:54.534Z,10.20
2023-04-16T09:38:26.776Z,10.09
2023-04-16T09:41:10.259Z,10.25
2023-04-16T09:43:40.873Z,10.17
2023-04-16T09:46:14.669Z,9.91
2023-04-16T09:48:48.334Z,10.10
2023-04-16T09:51:18.612Z,10.21
2023-04-16T09:53:49.101Z,9.92
2023-04-16T09:56:21.802Z,10.13
2023-04-16T09:58:52.282Z,10.45
2023-04-16T10:01:22.204Z,10.48
2023-04-16T10:03:52.696Z,10.50
2023-04-16T10:06:24.226Z,10.35
2023-04-16T10:08:57.295Z,10.67
2023-04-16T10:11:29.363Z,11.20
2023-04-16T10:13:59.266Z,11.15
2023-04-16T10:16:29.309Z,11.56
2023-04-16T10:18:59.915Z,11.58
2023-04-16T10:21:34.535Z,11.59
2023-04-16T10:24:05.802Z,11.23
2023-04-16T10:26:41.167Z,11.43
2023-04-16T10:29:11.912Z,11.34
2023-04-16T10:31:43.365Z,11.81
2023-04-16T10:34:14.132Z,12.09
2023-04-16T10:36:48.547Z,11.78
2023-04-16T10:39:23.342Z,12.14
2023-04-16T10:42:12.154Z,12.13
2023-04-16T10:44:45.275Z,12.03
2023-04-16T10:47:15.939Z,12.21
2023-04-16T10:49:46.850Z,12.29
2023-04-16T10:52:18.748Z,12.60
2023-04-16T10:54:50.227Z,12.42
2023-04-16T10:57:24.159Z,12.22
2023-04-16T10:59:56.969Z,12.63
2023-04-16T11:02:32.438Z,12.52
2023-04-16T11:05:04.935Z,12.29
2023-04-16T11:07:37.882Z,12.13
2023-04-16T11:10:09.249Z,12.24
2023-04-16T11:12:42.967Z,11.97
2023-04-16T11:15:19.409Z,11.82
2023-04-16T11:17:52.995Z,11.87
2023-04-16T11:20:26.259Z,11.93
2023-04-16T11:22:58.140Z,12.44
2023-04-16T11:25:30.335Z,12.19
2023-04-16T11:28:06.554Z,12.65
2023-04-16T11:30:38.664Z,12.83
2023-04-16T11:33:11.455Z,12.86
2023-04-16T11:35:43.644Z,12.91
2023-04-16T11:38:14.508Z,12.90
2023-04-16T11:40:48.485Z,12.82
2023-04-16T11:43:20.328Z,12.93
2023-04-16T11:45:59.906Z,12.93
2023-04-16T11:48:51.674Z,13.10
2023-04-16T11:51:24.253Z,13.17
2023-04-16T11:53:56.765Z,13.14
2023-04-16T11:56:31.255Z,13.36
2023-04-16T11:59:18.872Z,13.19
2023-04-16T12:01:51.291Z,13.35
2023-04-16T12:04:25.200Z,13.31
2023-04-16T12:07:13.274Z,12.81
2023-04-16T12:09:45.352Z,13.03
2023-04-16T12:12:31.869Z,13.17
2023-04-16T12:15:05.702Z,13.03
2023-04-16T12:17:36.926Z,12.80
2023-04-16T12:20:13.128Z,12.64
2023-04-16T12:22:50.227Z,12.83
2023-04-16T12:25:22.824Z,13.24
2023-04-16T12:27:56.002Z,13.24
2023-04-16T12:30:28.597Z,12.98
2023-04-16T12:33:17.460Z,12.80
2023-04-16T12:35:48.777Z,12.94
2023-04-16T12:38:31.252Z,12.75
2023-04-16T12:41:02.816Z,12.73
2023-04-16T12:43:33.737Z,12.85
2023-04-16T12:46:07.100Z,13.28
2023-04-16T12:48:38.170Z,13.10
2023-04-16T12:51:09.278Z,13.50
2023-04-16T12:53:41.616Z,13.47
2023-04-16T12:56:11.606Z,13.28
2023-04-16T12:58:43.108Z,13.21
2023-04-16T13:01:14.371Z,13.20
2023-04-16T13:03:45.840Z,13.38
2023-04-16T13:06:18.611Z,13.01
2023-04-16T13:08:50.011Z,13.34
2023-04-16T13:11:20.984Z,12.71
2023-04-16T13:13:51.159Z,12.64
2023-04-16T13:16:23.814Z,12.58
2023-04-16T13:18:54.949Z,12.72
2023-04-16T13:21:27.369Z,12.87
2023-04-16T13:23:57.306Z,12.63
2023-04-16T13:26:26.713Z,12.53
2023-04-16T13:28:57.454Z,12.98
2023-04-16T13:31:30.558Z,12.84
2023-04-16T13:34:02.055Z,12.56
2023-04-16T13:36:34.576Z,12.70
2023-04-16T13:39:11.510Z,12.86
2023-04-16T13:41:42.096Z,12.72
2023-04-16T13:44:13.338Z,12.59
2023-04-16T13:46:48.181Z,12.72
2023-04-16T13:49:20.087Z,12.63
2023-04-16T13:51:53.156Z,12.61
2023-04-16T13:54:23.593Z,12.76
2023-04-16T13:56:54.066Z,12.61
2023-04-16T13:59:24.314Z,12.60
2023-04-16T14:01:55.717Z,12.53
2023-04-16T14:04:29.208Z,12.67
2023-04-16T14:06:59.639Z,13.01
2023-04-16T14:09:31.076Z,12.98
2023-04-16T14:12:00.816Z,13.13
2023-04-16T14:14:32.664Z,12.91
2023-04-16T14:17:04.614Z,12.97
2023-04-16T14:19:35.170Z,13.19
2023-04-16T14:22:08.783Z,13.05
2023-04-16T14:24:40.300Z,13.08
2023-04-16T14:27:11.467Z,13.11
2023-04-16T14:29:42.262Z,12.89
2023-04-16T14:32:14.175Z,12.90
2023-04-16T14:34:45.930Z,12.93
2023-04-16T14:37:19.173Z,12.97
2023-04-16T14:39:49.653Z,13.13
2023-04-16T14:42:20.717Z,12.91
2023-04-16T14:44:52.970Z,12.98
2023-04-16T14:47:36.937Z,12.81
2023-04-16T14:50:10.849Z,13.12
2023-04-16T14:52:41.412Z,12.98
2023-04-16T14:55:13.210Z,12.87
2023-04-16T14:57:44.448Z,12.52
2023-04-16T15:00:19.186Z,12.41
2023-04-16T15:02:52.314Z,12.63
2023-04-16T15:05:23.522Z,12.46
2023-04-16T15:07:54.422Z,12.48
2023-04-16T15:10:25.114Z,12.25
2023-04-16T15:12:57.177Z,11.99
2023-04-16T15:15:28.359Z,11.78
2023-04-16T15:18:00.829Z,11.76
2023-04-16T15:20:32.046Z,12.06
2023-04-16T15:23:02.720Z,11.93
2023-04-16T15:25:33.412Z,12.08
2023-04-16T15:28:04.035Z,11.92
2023-04-16T15:30:34.763Z,11.96
2023-04-16T15:33:07.809Z,11.83
2023-04-16T15:35:42.232Z,11.90
2023-04-16T15:38:15.143Z,11.73
2023-04-16T15:40:45.940Z,11.80
2023-04-16T15:43:17.570Z,11.97
2023-04-16T15:45:49.279Z,11.81
2023-04-16T15:48:24.643Z,11.83
2023-04-16T15:50:55.948Z,11.92
2023-04-16T15:53:26.657Z,12.02
2023-04-16T15:55:58.814Z,12.36
2023-04-16T15:58:30.108Z,12.19
2023-04-16T16:01:01.392Z,11.99
2023-04-16T16:03:38.442Z,11.91
2023-04-16T16:06:09.689Z,12.03
2023-04-16T16:08:40.025Z,11.89
2023-04-16T16:11:11.102Z,11.94
2023-04-16T16:13:42.029Z,11.92
2023-04-16T16:16:12.788Z,12.09
2023-04-16T16:18:45.605Z,12.09
2023-04-16T16:21:15.652Z,11.94
2023-04-16T16:23:46.512Z,11.93
2023-04-16T16:26:18.238Z,11.82
2023-04-16T16:28:48.908Z,11.92
2023-04-16T16:31:22.209Z,11.74
2023-04-16T16:33:55.825Z,11.59
2023-04-16T16:36:28.069Z,11.74
2023-04-16T16:38:57.654Z,11.98
2023-04-16T16:41:28.801Z,11.75
2023-04-16T16:44:02.865Z,11.61
2023-04-16T16:46:34.500Z,11.92
2023-04-16T16:49:09.728Z,11.73
2023-04-16T16:51:42.079Z,11.78
2023-04-16T16:54:12.397Z,11.65
2023-04-16T16:56:45.679Z,11.80
2023-04-16T16:59:16.890Z,11.72
2023-04-16T17:01:47.838Z,11.77
2023-04-16T17:04:21.172Z,11.66
2023-04-16T17:06:52.050Z,11.68
2023-04-16T17:09:22.965Z,11.67
2023-04-16T17:11:54.919Z,11.71
2023-04-16T17:14:26.561Z,11.68
2023-04-16T17:16:59.089Z,11.62
2023-04-16T17:19:31.387Z,11.65
2023-04-16T17:22:02.881Z,11.46
2023-04-16T17:24:33.322Z,11.49
2023-04-16T17:27:06.566Z,11.44
2023-04-16T17:29:37.407Z,11.49
2023-04-16T17:32:11.349Z,11.45
2023-04-16T17:34:43.693Z,11.36
2023-04-16T17:37:14.583Z,11.32
2023-04-16T17:39:44.676Z,11.40
2023-04-16T17:42:18.171Z,11.47
2023-04-16T17:44:48.954Z,11.33
2023-04-16T17:47:19.594Z,11.34
2023-04-16T17:49:56.076Z,11.47
2023-04-16T17:52:26.750Z,11.19
2023-04-16T17:55:01.510Z,11.09
2023-04-16T17:57:32.853Z,11.00
2023-04-16T18:00:03.268Z,10.90
2023-04-16T18:02:35.316Z,11.06
2023-04-16T18:05:09.530Z,11.10
2023-04-16T18:07:41.293Z,10.85
2023-04-16T18:10:13.136Z,10.68
2023-04-16T18:12:44.960Z,10.81
2023-04-16T18:15:17.715Z,10.76
2023-04-16T18:17:49.163Z,10.74
2023-04-16T18:20:21.909Z,10.94
2023-04-16T18:22:53.911Z,10.69
2023-04-16T18:25:33.547Z,10.68
2023-04-16T18:28:06.491Z,10.45
2023-04-16T18:30:40.518Z,10.59
2023-04-16T18:33:43.551Z,10.60
2023-04-16T18:36:05.947Z,10.54
2023-04-16T18:38:46.321Z,10.48
2023-04-16T18:41:35.141Z,10.38
2023-04-16T18:44:06.231Z,10.24
2023-04-16T18:46:36.738Z,10.33
2023-04-16T18:49:09.839Z,10.27
2023-04-16T18:51:44.677Z,10.23
2023-04-16T18:54:14.871Z,10.33
2023-04-16T18:56:44.675Z,10.61
2023-04-16T18:59:16.923Z,10.68
2023-04-16T19:01:46.961Z,10.56
2023-04-16T19:04:18.072Z,10.41
2023-04-16T19:06:49.750Z,10.36
2023-04-16T19:09:20.102Z,10.56
2023-04-16T19:11:51.460Z,10.27
2023-04-16T19:14:21.978Z,10.33
2023-04-16T19:16:55.769Z,10.42
2023-04-16T19:19:26.145Z,10.51
2023-04-16T19:21:56.966Z,10.53
2023-04-16T19:24:27.516Z,10.31
2023-04-16T19:26:58.247Z,10.38
2023-04-16T19:29:28.565Z,10.55
2023-04-16T19:31:58.713Z,10.35
2023-04-16T19:34:28.860Z,10.35
2023-04-16T19:37:01.727Z,10.23
2023-04-16T19:39:32.054Z,10.20
2023-04-16T19:42:03.205Z,10.58
2023-04-16T19:44:33.509Z,10.41
2023-04-16T19:47:03.854Z,10.31
2023-04-16T19:49:34.722Z,10.52
2023-04-16T19:52:06.589Z,10.18
2023-04-16T19:54:37.768Z,10.21
2023-04-16T19:57:07.566Z,10.27
2023-04-16T19:59:38.543Z,10.20
2023-04-16T20:02:09.432Z,10.20
2023-04-16T20:04:39.830Z,10.03
2023-04-16T20:07:12.071Z,10.16
2023-04-16T20:09:42.098Z,9.91
2023-04-16T20:12:15.222Z,9.77
2023-04-16T20:14:45.399Z,10.03
2023-04-16T20:17:19.864Z,10.02
2023-04-16T20:19:51.475Z,9.96
2023-04-16T20:22:23.182Z,10.16
2023-04-16T20:24:55.246Z,9.91
2023-04-16T20:27:26.006Z,9.99
2023-04-16T20:29:57.328Z,9.94
2023-04-16T20:32:28.735Z,10.00
2023-04-16T20:34:59.823Z,9.91
2023-04-16T20:37:33.220Z,9.92
2023-04-16T20:40:04.668Z,9.85
2023-04-16T20:42:36.025Z,9.88
2023-04-16T20:45:06.845Z,10.00
2023-04-16T20:47:37.364Z,10.02
2023-04-16T20:50:08.637Z,9.95
2023-04-16T20:52:40.388Z,10.06
2023-04-16T20:55:11.574Z,10.14
2023-04-16T20:57:42.847Z,10.01
2023-04-16T21:00:17.151Z,9.99
2023-04-16T21:02:47.893Z,9.97
2023-04-16T21:05:22.099Z,10.11
2023-04-16T21:07:55.917Z,10.04
2023-04-16T21:10:27.045Z,10.03
2023-04-16T21:12:57.071Z,10.06
2023-04-16T21:15:27.196Z,10.17
2023-04-16T21:17:57.145Z,10.05
2023-04-16T21:20:28.811Z,10.15
2023-04-16T21:23:05.584Z,10.08
2023-04-16T21:25:36.188Z,10.04
2023-04-16T21:28:07.814Z,10.00
2023-04-16T21:30:38.922Z,10.16
2023-04-16T21:33:09.490Z,10.02
2023-04-16T21:35:39.479Z,9.79
2023-04-16T21:38:11.848Z,9.93
2023-04-16T21:40:41.953Z,9.95
2023-04-16T21:43:12.679Z,10.07
2023-04-16T21:45:44.058Z,9.88
2023-04-16T21:48:14.228Z,9.92
2023-04-16T21:50:47.065Z,9.85
2023-04-16T21:53:18.180Z,9.89
2023-04-16T21:55:47.923Z,9.76
2023-04-16T21:58:18.062Z,10.12
2023-04-16T22:00:49.065Z,9.91
2023-04-16T22:03:20.470Z,10.08
2023-04-16T22:05:50.602Z,10.01
2023-04-16T22:08:24.834Z,10.00
2023-04-16T22:10:58.081Z,10.06
2023-04-16T22:13:28.392Z,10.05
2023-04-16T22:16:01.739Z,9.95
2023-04-16T22:18:34.451Z,10.13
2023-04-16T22:21:04.448Z,10.00
2023-04-16T22:23:35.424Z,9.93
2023-04-16T22:26:05.324Z,10.11
2023-04-16T22:28:35.264Z,10.12
2023-04-16T22:31:05.208Z,10.13
2023-04-16T22:33:35.438Z,10.16
2023-04-16T22:36:08.887Z,10.08
2023-04-16T22:38:41.213Z,10.15
2023-04-16T22:41:11.633Z,9.87
2023-04-16T22:43:41.364Z,9.87
2023-04-16T22:46:11.620Z,9.93
2023-04-16T22:48:44.093Z,9.89
2023-04-16T22:51:14.117Z,9.88
2023-04-16T22:53:46.928Z,9.79
2023-04-16T22:56:18.188Z,10.02
2023-04-16T22:58:49.439Z,9.79
2023-04-16T23:01:19.488Z,9.89
2023-04-16T23:03:49.776Z,9.93
2023-04-16T23:06:20.213Z,9.87
2023-04-16T23:08:55.989Z,9.89
2023-04-16T23:11:26.448Z,9.89
2023-04-16T23:13:56.356Z,9.80
2023-04-16T23:16:27.370Z,9.75
2023-04-16T23:18:57.918Z,9.81
2023-04-16T23:21:28.428Z,9.77
2023-04-16T23:24:00.341Z,9.74
2023-04-16T23:26:30.118Z,9.76
2023-04-16T23:29:01.208Z,9.71
2023-04-16T23:31:30.825Z,9.80
2023-04-16T23:34:02.076Z,9.84
2023-04-16T23:36:32.699Z,9.80
2023-04-16T23:39:05.037Z,9.83
2023-04-16T23:41:35.086Z,9.86
2023-04-16T23:44:05.269Z,9.90
2023-04-16T23:46:35.496Z,9.93
2023-04-16T23:49:06.496Z,9.97
2023-04-16T23:51:36.237Z,10.05
2023-04-16T23:54:08.149Z,9.96
2023-04-16T23:56:37.952Z,10.07
2023-04-16T23:59:11.297Z,10.08
